createdAt,value
2023-03-28T00:02:27.407Z,77.38
2023-03-28T00:05:00.855Z,77.09
2023-03-28T00:07:32.404Z,76.63
2023-03-28T00:10:03.897Z,76.63
2023-03-28T00:12:34.461Z,76.70
2023-03-28T00:15:04.877Z,76.64
2023-03-28T00:17:35.382Z,76.93
2023-03-28T00:20:10.762Z,76.64
2023-03-28T00:22:41.622Z,77.17
2023-03-28T00:25:13.614Z,76.97
2023-03-28T00:27:44.127Z,77.01
2023-03-28T00:30:16.229Z,77.44
2023-03-28T00:32:46.656Z,77.88
2023-03-28T00:35:20.020Z,78.20
2023-03-28T00:37:51.392Z,78.93
2023-03-28T00:40:22.259Z,78.97
2023-03-28T00:42:52.873Z,78.30
2023-03-28T00:45:24.368Z,78.27
2023-03-28T00:47:59.036Z,77.99
2023-03-28T00:50:37.000Z,77.51
2023-03-28T00:53:13.896Z,77.23
2023-03-28T00:55:49.585Z,76.59
2023-03-28T00:58:26.873Z,76.67
2023-03-28T01:00:59.246Z,76.55
2023-03-28T01:03:34.668Z,76.85
2023-03-28T01:06:12.471Z,76.11
2023-03-28T01:08:47.200Z,76.43
2023-03-28T01:11:20.539Z,76.67
2023-03-28T01:13:55.098Z,76.48
2023-03-28T01:16:33.899Z,76.90
2023-03-28T01:19:07.597Z,76.44
2023-03-28T01:22:22.660Z,76.37
2023-03-28T01:25:31.704Z,76.25
2023-03-28T01:28:05.657Z,75.63
2023-03-28T01:31:44.673Z,75.75
2023-03-28T01:35:26.459Z,76.10
2023-03-28T01:38:07.661Z,76.05
2023-03-28T01:40:45.200Z,76.31
2023-03-28T01:43:30.364Z,76.32
2023-03-28T01:46:10.041Z,76.64
2023-03-28T01:48:54.716Z,76.82
2023-03-28T01:51:36.452Z,77.06
2023-03-28T01:54:18.360Z,77.51
2023-03-28T01:57:00.053Z,77.73
2023-03-28T01:59:41.679Z,78.00
2023-03-28T02:02:33.055Z,78.27
2023-03-28T02:05:15.673Z,78.41
2023-03-28T02:07:49.579Z,78.43
2023-03-28T02:10:27.389Z,78.59
2023-03-28T02:13:24.971Z,78.74
2023-03-28T02:16:06.023Z,78.76
2023-03-28T02:18:58.683Z,79.23
2023-03-28T02:21:56.732Z,79.59
2023-03-28T02:24:59.453Z,80.09
2023-03-28T02:27:42.908Z,80.49
2023-03-28T02:30:32.284Z,80.71
2023-03-28T02:33:04.193Z,81.22
2023-03-28T02:35:50.157Z,81.21
2023-03-28T02:38:28.876Z,81.26
2023-03-28T02:41:09.317Z,81.27
2023-03-28T02:44:05.966Z,81.42
2023-03-28T02:46:49.404Z,81.46
2023-03-28T02:52:35.391Z,81.38
2023-03-28T02:55:18.961Z,80.97
2023-03-28T02:58:10.496Z,80.96
2023-03-28T03:00:43.959Z,81.07
2023-03-28T03:03:16.037Z,81.00
2023-03-28T03:05:47.193Z,81.32
2023-03-28T03:08:17.806Z,81.27
2023-03-28T03:10:48.539Z,81.56
2023-03-28T03:13:19.949Z,81.23
2023-03-28T03:15:54.767Z,81.42
2023-03-28T03:18:28.461Z,81.33
2023-03-28T03:21:01.879Z,81.61
2023-03-28T03:23:32.591Z,81.53
2023-03-28T03:26:03.811Z,81.29
2023-03-28T03:28:42.034Z,81.44
2023-03-28T03:31:17.726Z,81.26
2023-03-28T03:34:07.887Z,80.86
2023-03-28T03:36:44.800Z,80.73
2023-03-28T03:39:15.975Z,80.52
2023-03-28T03:41:46.407Z,80.37
2023-03-28T03:44:17.034Z,79.95
2023-03-28T03:46:49.992Z,79.63
2023-03-28T03:49:20.443Z,79.76
2023-03-28T03:51:50.990Z,79.96
2023-03-28T03:54:21.728Z,79.78
2023-03-28T03:56:53.053Z,79.80
2023-03-28T03:59:23.763Z,79.95
2023-03-28T04:01:58.708Z,80.03
2023-03-28T04:05:10.157Z,79.72
2023-03-28T04:07:50.962Z,79.55
2023-03-28T04:10:33.588Z,79.63
2023-03-28T04:13:04.134Z,80.28
2023-03-28T04:15:36.955Z,80.41
2023-03-28T04:18:29.993Z,80.63
2023-03-28T04:21:03.325Z,80.78
2023-03-28T04:24:02.002Z,81.23
2023-03-28T04:26:50.326Z,80.89
2023-03-28T04:29:25.462Z,80.98
2023-03-28T04:32:15.332Z,80.70
2023-03-28T04:35:08.585Z,80.01
2023-03-28T04:37:39.407Z,80.32
2023-03-28T04:40:16.361Z,80.35
2023-03-28T04:43:04.390Z,80.29
2023-03-28T04:45:40.375Z,80.64
2023-03-28T04:48:20.170Z,80.58
2023-03-28T04:50:53.600Z,80.58
2023-03-28T04:53:24.364Z,80.70
2023-03-28T04:56:27.374Z,80.88
2023-03-28T04:58:58.814Z,80.80
2023-03-28T05:01:31.606Z,80.62
2023-03-28T05:04:31.737Z,80.90
2023-03-28T05:07:09.645Z,80.94
2023-03-28T05:09:40.281Z,81.21
2023-03-28T05:12:11.658Z,81.07
2023-03-28T05:15:06.727Z,81.38
2023-03-28T05:17:49.027Z,81.49
2023-03-28T05:20:30.849Z,81.39
2023-03-28T05:23:06.301Z,81.23
2023-03-28T05:25:39.653Z,81.24
2023-03-28T05:28:10.550Z,81.12
2023-03-28T05:30:51.438Z,81.05
2023-03-28T05:33:22.109Z,81.14
2023-03-28T05:35:53.913Z,81.31
2023-03-28T05:38:27.183Z,81.30
2023-03-28T05:41:02.191Z,81.41
2023-03-28T05:43:33.304Z,81.71
2023-03-28T05:46:03.931Z,81.79
2023-03-28T05:48:42.966Z,81.95
2023-03-28T05:51:20.879Z,82.25
2023-03-28T05:53:53.969Z,82.56
2023-03-28T05:56:24.538Z,82.88
2023-03-28T05:58:55.000Z,82.70
2023-03-28T06:01:29.216Z,82.44
2023-03-28T06:04:05.921Z,82.42
2023-03-28T06:06:36.599Z,82.43
2023-03-28T06:09:11.610Z,82.27
2023-03-28T06:12:02.511Z,82.31
2023-03-28T06:14:33.884Z,82.48
2023-03-28T06:17:08.289Z,82.15
2023-03-28T06:19:48.735Z,81.89
2023-03-28T06:22:20.033Z,81.83
2023-03-28T06:24:58.511Z,81.67
2023-03-28T06:27:35.798Z,81.70
2023-03-28T06:30:09.045Z,81.63
2023-03-28T06:32:47.542Z,81.60
2023-03-28T06:35:18.964Z,81.52
2023-03-28T06:37:49.469Z,81.70
2023-03-28T06:40:30.319Z,81.72
2023-03-28T06:43:03.139Z,81.08
2023-03-28T06:45:53.990Z,81.03
2023-03-28T06:48:29.405Z,80.82
2023-03-28T06:51:18.811Z,80.88
2023-03-28T06:53:49.975Z,80.64
2023-03-28T06:56:27.924Z,80.93
2023-03-28T06:58:59.860Z,80.81
2023-03-28T07:01:33.941Z,81.06
2023-03-28T07:04:13.816Z,80.47
2023-03-28T07:06:47.192Z,80.19
2023-03-28T07:09:17.687Z,80.41
2023-03-28T07:11:56.724Z,79.77
2023-03-28T07:14:27.959Z,78.45
2023-03-28T07:16:58.810Z,78.59
2023-03-28T07:19:30.535Z,77.67
2023-03-28T07:22:01.127Z,77.25
2023-03-28T07:24:32.124Z,78.17
2023-03-28T07:27:15.587Z,77.60
2023-03-28T07:29:48.809Z,76.38
2023-03-28T07:32:20.582Z,75.66
2023-03-28T07:34:51.162Z,75.92
2023-03-28T07:37:25.141Z,76.00
2023-03-28T07:40:13.442Z,75.59
2023-03-28T07:42:47.799Z,74.13
2023-03-28T07:45:20.207Z,74.13
2023-03-28T07:47:50.636Z,73.98
2023-03-28T07:50:23.556Z,73.84
2023-03-28T07:52:57.847Z,74.43
2023-03-28T07:55:32.673Z,73.06
2023-03-28T07:58:09.085Z,72.64
2023-03-28T08:00:43.306Z,73.61
2023-03-28T08:03:32.581Z,73.31
2023-03-28T08:06:13.467Z,73.56
2023-03-28T08:08:50.966Z,72.79
2023-03-28T08:11:43.461Z,72.15
2023-03-28T08:14:18.815Z,70.62
2023-03-28T08:16:50.644Z,69.88
2023-03-28T08:19:21.559Z,70.85
2023-03-28T08:22:10.891Z,68.62
2023-03-28T08:24:49.380Z,69.27
2023-03-28T08:27:25.688Z,68.59
2023-03-28T08:30:04.042Z,69.69
2023-03-28T08:32:37.329Z,69.54
2023-03-28T08:35:09.162Z,69.24
2023-03-28T08:37:39.720Z,67.28
2023-03-28T08:40:16.523Z,67.63
2023-03-28T08:43:10.220Z,67.84
2023-03-28T08:45:52.027Z,67.63
2023-03-28T08:48:28.624Z,66.12
2023-03-28T08:51:04.564Z,62.80
2023-03-28T08:53:39.103Z,62.75
2023-03-28T08:56:11.581Z,63.38
2023-03-28T08:58:51.561Z,60.77
2023-03-28T09:01:25.429Z,61.28
2023-03-28T09:03:56.198Z,60.68
2023-03-28T09:06:38.329Z,61.00
2023-03-28T09:09:34.337Z,60.82
2023-03-28T09:12:41.066Z,60.54
2023-03-28T09:15:31.201Z,61.30
2023-03-28T09:18:34.009Z,61.01
2023-03-28T09:21:15.320Z,60.44
2023-03-28T09:24:16.717Z,56.85
2023-03-28T09:27:18.415Z,56.84
2023-03-28T09:29:51.481Z,57.97
2023-03-28T09:32:27.579Z,57.27
2023-03-28T09:35:01.841Z,56.22
2023-03-28T09:37:42.899Z,55.15
2023-03-28T09:40:23.744Z,53.74
2023-03-28T09:43:18.255Z,53.30
2023-03-28T09:46:10.690Z,52.68
2023-03-28T09:49:06.923Z,54.13
2023-03-28T09:51:43.542Z,54.05
2023-03-28T09:54:14.771Z,53.35
2023-03-28T09:56:47.982Z,53.91
2023-03-28T09:59:32.412Z,53.22
2023-03-28T10:02:29.942Z,48.82
2023-03-28T10:05:06.243Z,49.51
2023-03-28T10:07:52.446Z,51.08
2023-03-28T10:10:35.699Z,51.99
2023-03-28T10:13:14.562Z,51.34
2023-03-28T10:15:50.944Z,50.65
2023-03-28T10:18:29.206Z,49.00
2023-03-28T10:21:29.518Z,49.16
2023-03-28T10:24:25.162Z,47.49
2023-03-28T10:27:02.094Z,47.62
2023-03-28T10:29:33.834Z,48.48
2023-03-28T10:32:06.177Z,48.48
2023-03-28T10:35:05.114Z,48.55
2023-03-28T10:37:51.266Z,50.41
2023-03-28T10:40:36.198Z,48.81
2023-03-28T10:43:25.621Z,47.75
2023-03-28T10:46:16.302Z,48.34
2023-03-28T10:49:08.478Z,47.17
2023-03-28T10:51:43.992Z,49.22
2023-03-28T10:54:25.863Z,48.39
2023-03-28T10:57:02.001Z,48.29
2023-03-28T10:59:49.650Z,48.30
2023-03-28T11:02:40.628Z,48.13
2023-03-28T11:05:38.261Z,45.95
2023-03-28T11:08:30.803Z,46.06
2023-03-28T11:11:18.412Z,45.49
2023-03-28T11:14:07.237Z,45.77
2023-03-28T11:16:48.062Z,47.55
2023-03-28T11:20:17.873Z,47.08
2023-03-28T11:23:24.216Z,46.38
2023-03-28T11:26:18.631Z,45.64
2023-03-28T11:29:43.767Z,45.06
2023-03-28T11:32:25.129Z,44.86
2023-03-28T11:35:10.268Z,45.93
2023-03-28T11:37:48.544Z,44.94
2023-03-28T11:40:26.216Z,45.06
2023-03-28T11:43:08.492Z,44.38
2023-03-28T11:45:53.066Z,44.96
2023-03-28T11:48:32.080Z,45.07
2023-03-28T11:51:11.735Z,44.39
2023-03-28T11:53:56.715Z,44.92
2023-03-28T11:56:46.608Z,45.94
2023-03-28T11:59:27.659Z,43.53
2023-03-28T12:02:17.452Z,40.19
2023-03-28T12:04:56.819Z,40.64
2023-03-28T12:07:34.584Z,40.79
2023-03-28T12:10:25.458Z,38.95
2023-03-28T12:13:07.161Z,38.39
2023-03-28T12:15:49.987Z,37.48
2023-03-28T12:18:32.756Z,38.06
2023-03-28T12:21:11.374Z,36.91
2023-03-28T12:24:05.949Z,35.29
2023-03-28T12:27:03.620Z,36.11
2023-03-28T12:29:41.954Z,36.42
2023-03-28T12:32:29.986Z,36.41
2023-03-28T12:35:16.277Z,36.68
2023-03-28T12:38:10.030Z,36.37
2023-03-28T12:40:55.964Z,36.34
2023-03-28T12:43:44.264Z,36.68
2023-03-28T12:46:22.745Z,35.72
2023-03-28T12:48:59.222Z,36.08
2023-03-28T12:51:39.739Z,36.30
2023-03-28T12:54:28.041Z,37.11
2023-03-28T12:57:21.075Z,37.07
2023-03-28T13:00:25.357Z,35.30
2023-03-28T13:03:30.329Z,34.90
2023-03-28T13:06:09.947Z,34.96
2023-03-28T13:09:05.918Z,34.26
2023-03-28T13:11:47.521Z,35.21
2023-03-28T13:14:40.187Z,35.13
2023-03-28T13:17:24.431Z,35.52
2023-03-28T13:19:57.227Z,33.93
2023-03-28T13:22:35.059Z,33.94
2023-03-28T13:25:32.614Z,32.84
2023-03-28T13:28:24.300Z,33.93
2023-03-28T13:31:11.509Z,31.65
2023-03-28T13:33:49.047Z,30.86
2023-03-28T13:36:29.408Z,31.31
2023-03-28T13:39:25.635Z,32.35
2023-03-28T13:42:03.365Z,32.74
2023-03-28T13:44:45.210Z,32.52
2023-03-28T13:47:26.036Z,31.77
2023-03-28T13:50:04.728Z,31.70
2023-03-28T13:52:35.745Z,32.48
2023-03-28T13:55:24.177Z,30.84
2023-03-28T13:57:57.728Z,30.19
2023-03-28T14:00:29.932Z,29.59
2023-03-28T14:03:06.926Z,29.97
2023-03-28T14:05:38.016Z,32.65
2023-03-28T14:08:25.833Z,31.56
2023-03-28T14:10:57.111Z,29.26
2023-03-28T14:13:33.720Z,29.57
2023-03-28T14:16:04.201Z,28.54
2023-03-28T14:18:38.634Z,30.30
2023-03-28T14:21:10.409Z,29.63
2023-03-28T14:23:42.903Z,29.31
2023-03-28T14:26:22.203Z,29.97
2023-03-28T14:29:00.504Z,29.16
2023-03-28T14:31:37.177Z,28.63
2023-03-28T14:34:21.389Z,28.18
2023-03-28T14:37:01.385Z,28.66
2023-03-28T14:39:34.417Z,27.82
2023-03-28T14:42:08.932Z,26.46
2023-03-28T14:44:45.764Z,28.22
2023-03-28T14:47:27.397Z,26.80
2023-03-28T14:49:59.339Z,26.29
2023-03-28T14:52:34.652Z,26.93
2023-03-28T14:55:05.564Z,26.82
2023-03-28T14:57:38.656Z,27.34
2023-03-28T15:00:19.485Z,28.06
2023-03-28T15:02:50.526Z,28.35
2023-03-28T15:05:23.563Z,28.74
2023-03-28T15:08:00.674Z,28.48
2023-03-28T15:10:32.323Z,28.14
2023-03-28T15:13:09.403Z,27.87
2023-03-28T15:15:47.674Z,27.96
2023-03-28T15:18:25.404Z,28.47
2023-03-28T15:20:59.506Z,28.14
2023-03-28T15:23:34.951Z,27.94
2023-03-28T15:26:10.680Z,28.51
2023-03-28T15:28:41.766Z,27.66
2023-03-28T15:31:15.482Z,26.93
2023-03-28T15:33:50.040Z,27.37
2023-03-28T15:36:25.377Z,25.68
2023-03-28T15:39:03.876Z,25.00
2023-03-28T15:41:48.596Z,25.29
2023-03-28T15:44:30.375Z,25.47
2023-03-28T15:47:08.520Z,25.21
2023-03-28T15:49:40.755Z,25.49
2023-03-28T15:52:19.779Z,26.55
2023-03-28T15:54:55.714Z,26.25
2023-03-28T15:57:30.070Z,26.36
2023-03-28T16:00:01.443Z,25.53
2023-03-28T16:02:37.827Z,25.14
2023-03-28T16:05:10.521Z,25.68
2023-03-28T16:07:51.867Z,24.90
2023-03-28T16:10:24.732Z,25.96
2023-03-28T16:13:16.911Z,25.50
2023-03-28T16:16:13.216Z,25.59
2023-03-28T16:18:58.510Z,25.60
2023-03-28T16:21:29.645Z,24.86
2023-03-28T16:24:00.268Z,24.45
2023-03-28T16:26:31.126Z,24.92
2023-03-28T16:29:03.798Z,24.71
2023-03-28T16:31:34.469Z,25.01
2023-03-28T16:34:10.067Z,25.37
2023-03-28T16:36:41.316Z,24.84
2023-03-28T16:39:12.754Z,24.70
2023-03-28T16:41:43.211Z,24.93
2023-03-28T16:44:14.000Z,25.42
2023-03-28T16:46:44.404Z,25.75
2023-03-28T16:49:17.427Z,26.35
2023-03-28T16:51:48.060Z,26.79
2023-03-28T16:54:18.549Z,27.15
2023-03-28T16:56:48.948Z,26.73
2023-03-28T16:59:20.371Z,26.82
2023-03-28T17:01:50.839Z,26.94
2023-03-28T17:04:23.983Z,27.38
2023-03-28T17:06:54.384Z,27.82
2023-03-28T17:09:24.776Z,28.23
2023-03-28T17:11:55.361Z,28.08
2023-03-28T17:14:25.776Z,28.74
2023-03-28T17:16:56.391Z,29.00
2023-03-28T17:19:29.563Z,29.04
2023-03-28T17:22:00.739Z,29.19
2023-03-28T17:24:34.063Z,29.31
2023-03-28T17:27:04.757Z,29.52
2023-03-28T17:29:35.753Z,29.59
2023-03-28T17:32:06.360Z,29.86
2023-03-28T17:34:39.760Z,30.54
2023-03-28T17:37:10.089Z,30.64
2023-03-28T17:39:42.456Z,31.04
2023-03-28T17:42:12.917Z,31.29
2023-03-28T17:44:43.461Z,31.01
2023-03-28T17:47:13.953Z,31.06
2023-03-28T17:49:47.138Z,31.25
2023-03-28T17:52:17.903Z,31.51
2023-03-28T17:54:50.955Z,31.67
2023-03-28T17:57:22.263Z,31.66
2023-03-28T17:59:53.016Z,31.80
2023-03-28T18:02:24.248Z,31.76
2023-03-28T18:05:13.980Z,31.93
2023-03-28T18:07:44.787Z,32.18
2023-03-28T18:10:15.920Z,32.41
2023-03-28T18:12:46.465Z,32.43
2023-03-28T18:15:17.627Z,32.71
2023-03-28T18:17:48.189Z,32.74
2023-03-28T18:20:24.542Z,33.22
2023-03-28T18:22:55.742Z,33.21
2023-03-28T18:25:26.733Z,33.33
2023-03-28T18:27:57.649Z,33.30
2023-03-28T18:30:28.299Z,33.51
2023-03-28T18:32:59.223Z,33.43
2023-03-28T18:35:32.873Z,33.43
2023-03-28T18:38:03.329Z,33.80
2023-03-28T18:40:34.246Z,33.68
2023-03-28T18:43:04.737Z,33.81
2023-03-28T18:45:37.534Z,33.57
2023-03-28T18:48:09.173Z,33.63
2023-03-28T18:50:44.066Z,33.92
2023-03-28T18:53:14.324Z,34.04
2023-03-28T18:55:45.867Z,34.06
2023-03-28T18:58:16.356Z,34.26
2023-03-28T19:00:47.195Z,34.45
2023-03-28T19:03:18.961Z,34.43
2023-03-28T19:05:52.098Z,34.91
2023-03-28T19:08:22.893Z,34.87
2023-03-28T19:10:53.292Z,35.52
2023-03-28T19:13:24.316Z,35.51
2023-03-28T19:16:02.151Z,35.03
2023-03-28T19:18:33.826Z,34.99
2023-03-28T19:21:07.465Z,35.23
2023-03-28T19:23:38.422Z,35.50
2023-03-28T19:26:11.139Z,35.54
2023-03-28T19:28:42.035Z,35.52
2023-03-28T19:31:15.122Z,35.81
2023-03-28T19:33:46.494Z,35.99
2023-03-28T19:36:19.487Z,36.36
2023-03-28T19:38:49.994Z,36.63
2023-03-28T19:41:23.739Z,36.73
2023-03-28T19:43:55.570Z,36.98
2023-03-28T19:46:33.220Z,37.42
2023-03-28T19:49:07.480Z,37.77
2023-03-28T19:51:40.601Z,37.66
2023-03-28T19:54:11.151Z,37.72
2023-03-28T19:56:42.155Z,37.88
2023-03-28T19:59:12.723Z,38.07
2023-03-28T20:01:43.481Z,38.35
2023-03-28T20:04:14.852Z,38.54
2023-03-28T20:06:48.907Z,38.73
2023-03-28T20:09:19.415Z,38.81
2023-03-28T20:11:51.038Z,38.97
2023-03-28T20:14:22.168Z,38.71
2023-03-28T20:16:52.791Z,38.71
2023-03-28T20:19:23.304Z,38.60
2023-03-28T20:21:56.413Z,38.88
2023-03-28T20:24:26.745Z,39.00
2023-03-28T20:26:57.114Z,39.26
2023-03-28T20:29:27.619Z,39.05
2023-03-28T20:32:01.121Z,39.13
2023-03-28T20:34:33.300Z,39.50
2023-03-28T20:37:06.701Z,39.92
2023-03-28T20:39:37.828Z,40.11
2023-03-28T20:42:09.195Z,39.67
2023-03-28T20:44:40.789Z,39.78
2023-03-28T20:47:18.834Z,39.55
2023-03-28T20:49:50.174Z,40.42
2023-03-28T20:52:23.191Z,40.73
2023-03-28T20:54:54.499Z,40.76
2023-03-28T20:57:25.772Z,40.94
2023-03-28T20:59:58.149Z,41.03
2023-03-28T21:02:33.587Z,40.74
2023-03-28T21:05:04.874Z,40.98
2023-03-28T21:07:38.334Z,40.79
2023-03-28T21:10:13.864Z,41.13
2023-03-28T21:12:44.721Z,41.02
2023-03-28T21:15:15.863Z,41.43
2023-03-28T21:17:49.281Z,41.54
2023-03-28T21:20:21.029Z,42.21
2023-03-28T21:22:54.038Z,42.15
2023-03-28T21:25:24.605Z,42.41
2023-03-28T21:27:55.185Z,42.19
2023-03-28T21:30:25.742Z,41.76
2023-03-28T21:36:16.155Z,41.04
2023-03-28T21:38:50.159Z,41.05
2023-03-28T21:41:20.805Z,40.69
2023-03-28T21:43:51.995Z,40.52
2023-03-28T21:46:22.692Z,41.00
2023-03-28T21:48:53.356Z,41.37
2023-03-28T21:51:23.949Z,41.28
2023-03-28T21:53:57.085Z,41.34
2023-03-28T21:56:28.345Z,41.35
2023-03-28T21:58:58.935Z,41.31
2023-03-28T22:01:29.530Z,41.37
2023-03-28T22:03:59.997Z,41.49
2023-03-28T22:06:30.645Z,42.32
2023-03-28T22:09:05.255Z,42.49
2023-03-28T22:11:36.388Z,42.72
2023-03-28T22:14:06.951Z,42.96
2023-03-28T22:16:39.842Z,43.16
2023-03-28T22:19:11.495Z,43.15
2023-03-28T22:21:41.921Z,42.67
2023-03-28T22:24:14.949Z,42.66
2023-03-28T22:26:48.187Z,42.68
2023-03-28T22:29:19.585Z,43.06
2023-03-28T22:31:50.208Z,43.21
2023-03-28T22:34:21.309Z,43.10
2023-03-28T22:36:55.156Z,43.37
2023-03-28T22:39:28.377Z,43.61
2023-03-28T22:41:59.146Z,43.93
2023-03-28T22:44:29.784Z,44.31
2023-03-28T22:47:03.282Z,44.41
2023-03-28T22:49:35.071Z,44.97
2023-03-28T22:52:06.842Z,45.75
2023-03-28T22:54:42.737Z,46.26
2023-03-28T22:57:13.377Z,49.00
2023-03-28T22:59:43.881Z,50.53
2023-03-28T23:02:14.641Z,52.41
2023-03-28T23:04:47.099Z,54.74
2023-03-28T23:07:18.290Z,56.48
2023-03-28T23:09:51.332Z,58.34
2023-03-28T23:12:22.066Z,59.43
2023-03-28T23:14:53.737Z,60.84
2023-03-28T23:17:25.345Z,61.52
2023-03-28T23:19:56.074Z,62.35
2023-03-28T23:22:26.560Z,63.57
2023-03-28T23:24:59.610Z,64.36
2023-03-28T23:27:30.242Z,66.04
2023-03-28T23:30:00.871Z,67.52
2023-03-28T23:32:31.456Z,68.76
2023-03-28T23:35:01.943Z,69.71
2023-03-28T23:37:34.679Z,69.68
2023-03-28T23:40:15.318Z,69.62
2023-03-28T23:42:46.881Z,69.42
2023-03-28T23:45:18.444Z,69.47
2023-03-28T23:47:48.892Z,68.74
2023-03-28T23:50:19.764Z,68.52
2023-03-28T23:52:50.810Z,68.48
2023-03-28T23:55:24.039Z,68.19
2023-03-28T23:57:56.032Z,68.22
